Time;durP1;ratioP1;P1;durP2;ratioP2;P2;SDS_P1;SDS_P2;PMS_P1;PMS_P2;Temp;Humidity;BMP_temperature;BMP_pressure;BME280_temperature;BME280_humidity;BME280_pressure;Samples;Min_cycle;Max_cycle;Signal;HPM_P1;HPM_P2
2022/10/14 00:01:42;;;;;;;11.98;6.53;;;;;;;12.48;100.00;96098.16;6175660;23;20062;-62
2022/10/14 00:04:07;;;;;;;7.00;6.10;;;;;;;12.47;100.00;96094.69;6175571;23;20012;-62
2022/10/14 00:06:33;;;;;;;9.95;6.20;;;;;;;12.50;100.00;96096.22;6176039;23;20400;-63
2022/10/14 00:09:01;;;;;;;14.13;7.45;;;;;;;12.46;100.00;96095.66;6176382;23;20005;-63
2022/10/14 00:11:29;;;;;;;8.93;6.72;;;;;;;12.45;100.00;96091.34;6176048;23;20055;-63
2022/10/14 00:13:57;;;;;;;15.07;7.28;;;;;;;12.44;100.00;96090.53;6176887;23;20086;-66
2022/10/14 00:16:28;;;;;;;13.52;7.28;;;;;;;12.43;100.00;96088.88;6177215;23;20015;-68
2022/10/14 00:18:55;;;;;;;10.10;6.15;;;;;;;12.42;100.00;96081.06;6176956;23;20052;-67
2022/10/14 00:21:21;;;;;;;9.50;6.15;;;;;;;12.42;100.00;96081.06;6177139;23;20009;-68
2022/10/14 00:23:46;;;;;;;10.13;6.30;;;;;;;12.43;100.00;96075.66;6177739;22;20001;-67
2022/10/14 00:26:21;;;;;;;11.18;6.13;;;;;;;12.43;100.00;96074.81;6177027;23;20054;-66
2022/10/14 00:28:47;;;;;;;7.15;6.45;;;;;;;12.44;100.00;96073.84;6176856;23;20012;-65
2022/10/14 00:31:13;;;;;;;8.52;6.65;;;;;;;12.44;100.00;96073.84;6176871;23;20008;-57
2022/10/14 00:33:38;;;;;;;10.45;6.40;;;;;;;12.43;100.00;96072.19;6176584;23;20008;-62
2022/10/14 00:36:05;;;;;;;11.35;6.50;;;;;;;12.41;100.00;96067.06;6177236;23;20070;-62
2022/10/14 00:38:31;;;;;;;8.20;5.82;;;;;;;12.42;100.00;96075.81;6176936;23;20068;-63
2022/10/14 00:40:57;;;;;;;8.57;5.95;;;;;;;12.40;100.00;96075.97;6177011;23;20447;-63
2022/10/14 00:43:24;;;;;;;7.82;5.90;;;;;;;12.40;100.00;96068.03;6176511;23;20005;-63
2022/10/14 00:45:49;;;;;;;7.63;5.78;;;;;;;12.41;100.00;96067.06;6177465;23;20020;-63
2022/10/14 00:48:17;;;;;;;9.18;6.43;;;;;;;12.39;100.00;96068.16;6177148;23;20040;-59
2022/10/14 00:50:45;;;;;;;14.13;8.15;;;;;;;12.44;100.00;96079.97;6176907;23;20005;-65
2022/10/14 00:53:12;;;;;;;11.00;7.45;;;;;;;12.48;100.00;96083.13;6176375;22;20347;-70
2022/10/14 00:55:40;;;;;;;10.00;7.30;;;;;;;12.52;100.00;96091.63;6177064;23;20008;-70
2022/10/14 00:58:06;;;;;;;11.20;7.82;;;;;;;12.44;100.00;96084.41;6177110;22;20355;-70
2022/10/14 01:00:32;;;;;;;10.02;6.85;;;;;;;12.38;100.00;96090.28;6177075;23;19997;-70
2022/10/14 01:02:57;;;;;;;16.25;8.30;;;;;;;12.37;100.00;96088.59;6176593;23;20005;-70
2022/10/14 01:05:30;;;;;;;8.95;7.03;;;;;;;12.36;100.00;96079.84;6177377;22;20347;-70
2022/10/14 01:08:02;;;;;;;10.38;6.43;;;;;;;12.34;100.00;96078.34;6176636;23;20007;-63
2022/10/14 01:10:49;;;;;;;14.45;6.25;;;;;;;12.29;100.00;96074.31;6176967;23;20050;-70
2022/10/14 01:13:30;;;;;;;16.02;5.55;;;;;;;12.26;100.00;96071.13;6176630;23;20003;-63
2022/10/14 01:16:14;;;;;;;18.17;5.63;;;;;;;12.23;100.00;96072.22;6177058;23;20001;-63
2022/10/14 01:19:10;;;;;;;5.82;5.32;;;;;;;12.24;100.00;96073.09;6176579;23;20439;-63
2022/10/14 01:21:38;;;;;;;8.03;5.90;;;;;;;12.24;100.00;96073.91;6177105;22;20020;-63
2022/10/14 01:24:13;;;;;;;7.97;5.65;;;;;;;12.25;100.00;96072.09;6150374;23;20224;-63
2022/10/14 01:27:15;;;;;;;13.02;5.50;;;;;;;12.27;100.00;96068.34;6176679;23;19998;-63
2022/10/14 01:30:02;;;;;;;12.38;5.72;;;;;;;12.26;100.00;96068.50;6150634;23;20911;-70
2022/10/14 01:32:31;;;;;;;15.45;5.70;;;;;;;12.26;100.00;96065.84;6176520;23;20005;-63
2022/10/14 01:35:08;;;;;;;12.75;6.43;;;;;;;12.24;100.00;96063.34;6177082;23;20001;-63
2022/10/14 01:37:40;;;;;;;8.20;5.57;;;;;;;12.26;100.00;96063.22;6176563;23;20009;-63
2022/10/14 01:40:16;;;;;;;17.20;6.63;;;;;;;12.25;100.00;96054.44;6176814;23;20084;-63
2022/10/14 01:42:44;;;;;;;7.55;5.97;;;;;;;12.23;100.00;96055.59;6176178;23;20036;-62
2022/10/14 01:45:20;;;;;;;7.88;5.88;;;;;;;12.21;100.00;96058.34;6177014;23;20028;-63
2022/10/14 01:47:49;;;;;;;10.80;5.53;;;;;;;12.19;100.00;96060.31;6176780;23;20001;-67
2022/10/14 01:50:17;;;;;;;11.80;6.18;;;;;;;12.19;100.00;96062.94;6176914;23;20073;-65
2022/10/14 01:52:48;;;;;;;8.48;5.97;;;;;;;12.19;100.00;96052.38;6176393;23;20019;-65
2022/10/14 01:55:18;;;;;;;7.18;5.80;;;;;;;12.21;100.00;96058.34;6176717;23;20001;-65
2022/10/14 01:57:46;;;;;;;10.75;6.07;;;;;;;12.22;100.00;96051.28;6176596;23;20001;-65
2022/10/14 02:00:12;;;;;;;10.55;7.10;;;;;;;12.21;100.00;96052.25;6176797;22;20389;-65
2022/10/14 02:02:38;;;;;;;6.93;5.70;;;;;;;12.24;100.00;96042.22;6176251;23;20541;-65
2022/10/14 02:05:09;;;;;;;14.05;5.82;;;;;;;12.28;100.00;96045.41;6176721;22;19997;-65
2022/10/14 02:07:43;;;;;;;7.15;6.20;;;;;;;12.29;100.00;96041.81;6176852;23;20391;-70
2022/10/14 02:10:26;;;;;;;8.55;5.88;;;;;;;12.29;100.00;96042.66;6175775;23;20005;-62
2022/10/14 02:13:28;;;;;;;6.53;5.78;;;;;;;12.31;100.00;96038.06;6176491;23;20024;-62
2022/10/14 02:16:32;;;;;;;14.60;6.70;;;;;;;12.29;100.00;96026.81;6176614;23;20072;-63
2022/10/14 02:19:42;;;;;;;10.38;6.78;;;;;;;12.29;100.00;96028.59;6176098;23;20060;-63
2022/10/14 02:22:24;;;;;;;7.00;5.60;;;;;;;12.27;100.00;96030.56;6175834;23;20004;-62
2022/10/14 02:24:58;;;;;;;12.52;6.18;;;;;;;12.27;100.00;96041.13;6177090;23;19997;-69
2022/10/14 02:27:25;;;;;;;5.90;5.22;;;;;;;12.29;100.00;96039.16;6176348;23;20012;-59
2022/10/14 02:29:54;;;;;;;9.85;5.45;;;;;;;12.30;100.00;96036.38;6176808;22;20339;-65
2022/10/14 02:32:23;;;;;;;10.45;5.25;;;;;;;12.31;100.00;96038.06;6176224;23;20001;-65
2022/10/14 02:34:51;;;;;;;8.27;5.07;;;;;;;12.31;100.00;96032.78;6176485;23;20001;-65
2022/10/14 02:37:19;;;;;;;8.23;5.40;;;;;;;12.29;100.00;96037.38;6176401;23;20079;-65
2022/10/14 02:40:12;;;;;;;8.60;5.75;;;;;;;12.27;100.00;96028.75;6176267;23;20349;-65
2022/10/14 02:42:37;;;;;;;11.65;5.53;;;;;;;12.27;100.00;96023.47;6175482;23;20009;-65
2022/10/14 02:45:03;;;;;;;7.32;5.85;;;;;;;12.27;100.00;96030.56;6176332;23;20000;-63
2022/10/14 02:47:29;;;;;;;8.43;6.00;;;;;;;12.27;100.00;96030.56;6176519;23;20050;-69
2022/10/14 02:49:54;;;;;;;9.75;5.82;;;;;;;12.24;100.00;96029.03;6176378;23;19997;-63
2022/10/14 02:52:19;;;;;;;10.82;6.13;;;;;;;12.24;100.00;96023.75;6177132;23;20005;-62
2022/10/14 02:54:45;;;;;;;9.07;5.60;;;;;;;12.27;100.00;96022.63;6176685;23;20005;-63
2022/10/14 02:57:10;;;;;;;5.93;5.20;;;;;;;12.27;100.00;96020.00;6177054;23;20050;-63
2022/10/14 02:59:36;;;;;;;7.38;5.53;;;;;;;12.28;100.00;96014.59;6176194;23;20005;-62
2022/10/14 03:02:01;;;;;;;13.07;6.38;;;;;;;12.27;100.00;96018.19;6176693;23;20002;-63
2022/10/14 03:04:27;;;;;;;10.77;5.90;;;;;;;12.22;100.00;96014.31;6176810;23;20004;-69
2022/10/14 03:06:52;;;;;;;12.02;6.35;;;;;;;12.23;100.00;96013.34;6177307;23;20049;-65
2022/10/14 03:09:18;;;;;;;6.30;5.35;;;;;;;12.22;100.00;96011.69;6176270;23;20004;-67
2022/10/14 03:11:44;;;;;;;8.93;6.05;;;;;;;12.22;100.00;96014.31;6176740;23;20001;-67
2022/10/14 03:14:09;;;;;;;9.15;5.50;;;;;;;12.18;100.00;96013.78;6176241;23;20001;-67
2022/10/14 03:16:34;;;;;;;6.07;5.40;;;;;;;12.19;100.00;96007.50;6176804;23;20013;-67
2022/10/14 03:19:00;;;;;;;14.48;5.95;;;;;;;12.19;100.00;96007.50;6176330;23;20017;-68
2022/10/14 03:21:25;;;;;;;8.90;5.20;;;;;;;12.19;100.00;96012.78;6177144;23;20041;-67
2022/10/14 03:23:51;;;;;;;7.15;5.45;;;;;;;12.18;100.00;96011.97;6175657;23;20001;-58
2022/10/14 03:26:17;;;;;;;9.30;5.07;;;;;;;12.18;100.00;96013.78;6177020;23;20100;-67
2022/10/14 03:28:43;;;;;;;9.95;5.70;;;;;;;12.16;100.00;96008.66;6176647;23;20028;-67
2022/10/14 03:31:08;;;;;;;8.77;5.57;;;;;;;12.16;100.00;96007.81;6176833;23;20001;-67
2022/10/14 03:33:33;;;;;;;8.10;5.93;;;;;;;12.13;100.00;96002.81;6176179;23;20009;-67
2022/10/14 03:35:59;;;;;;;10.50;5.53;;;;;;;12.11;100.00;95996.84;6176417;23;19997;-68
2022/10/14 03:38:24;;;;;;;8.27;6.10;;;;;;;12.08;100.00;95997.16;6176974;23;20336;-68
2022/10/14 03:40:49;;;;;;;12.85;5.45;;;;;;;12.07;100.00;95990.22;6176338;23;19997;-67
2022/10/14 03:43:15;;;;;;;12.75;5.00;;;;;;;12.03;100.00;95984.38;6176929;23;20074;-70
2022/10/14 03:45:42;;;;;;;8.13;5.90;;;;;;;11.99;100.00;95989.06;6175202;23;20035;-56
2022/10/14 03:48:07;;;;;;;7.65;4.97;;;;;;;12.01;100.00;95984.50;6175230;23;20347;-59
2022/10/14 03:50:33;;;;;;;9.10;5.13;;;;;;;11.99;100.00;95969.78;6175395;23;20004;-59
2022/10/14 03:52:58;;;;;;;12.82;5.57;;;;;;;11.99;100.00;95980.34;6175510;23;20343;-59
2022/10/14 03:55:23;;;;;;;10.18;5.53;;;;;;;11.98;100.00;95982.13;6175836;23;19997;-59
2022/10/14 03:57:49;;;;;;;13.95;5.70;;;;;;;11.96;100.00;95985.91;6176263;23;20373;-59
2022/10/14 04:00:14;;;;;;;9.00;5.30;;;;;;;11.96;100.00;95978.00;6176014;23;20008;-59
2022/10/14 04:02:40;;;;;;;11.30;4.95;;;;;;;11.97;100.00;95980.47;6176185;23;20427;-59
2022/10/14 04:05:06;;;;;;;12.68;5.57;;;;;;;11.97;100.00;95977.81;6176670;23;20447;-65
2022/10/14 04:07:31;;;;;;;10.50;5.28;;;;;;;11.97;100.00;95972.56;6176426;23;20009;-71
2022/10/14 04:09:57;;;;;;;10.15;5.57;;;;;;;11.97;100.00;95969.91;6175743;23;20004;-71
2022/10/14 04:12:22;;;;;;;9.10;5.30;;;;;;;11.99;100.00;95970.59;6175551;23;20001;-70
2022/10/14 04:14:47;;;;;;;9.35;5.85;;;;;;;12.00;100.00;95969.63;6175799;22;20081;-71
2022/10/14 04:17:13;;;;;;;7.85;5.28;;;;;;;12.03;100.00;95972.00;6150198;23;19997;-71
2022/10/14 04:19:38;;;;;;;15.80;5.45;;;;;;;12.04;100.00;95967.56;6175274;23;20017;-72
2022/10/14 04:22:04;;;;;;;8.35;5.80;;;;;;;12.04;100.00;95970.22;6175776;23;20033;-65
2022/10/14 04:24:30;;;;;;;9.70;5.65;;;;;;;12.03;100.00;95973.81;6176471;23;20016;-64
2022/10/14 04:26:55;;;;;;;10.18;5.20;;;;;;;12.03;100.00;95985.19;6175713;23;20012;-64
2022/10/14 04:29:21;;;;;;;11.60;5.72;;;;;;;12.02;100.00;95978.25;6175989;23;19997;-64
2022/10/14 04:31:46;;;;;;;10.40;5.97;;;;;;;12.04;100.00;95978.13;6175951;23;19997;-65
2022/10/14 04:34:12;;;;;;;9.98;6.95;;;;;;;12.04;100.00;95984.22;6175797;23;20070;-65
2022/10/14 04:36:37;;;;;;;8.10;5.35;;;;;;;12.05;100.00;95982.44;6175687;23;20004;-65
2022/10/14 04:39:03;;;;;;;10.07;5.93;;;;;;;12.04;100.00;95976.31;6174703;23;20059;-65
2022/10/14 04:41:28;;;;;;;9.23;5.68;;;;;;;12.07;100.00;95979.66;6174615;23;20038;-71
2022/10/14 04:43:54;;;;;;;10.32;6.20;;;;;;;12.10;100.00;95982.00;6173655;23;20343;-71
2022/10/14 04:46:19;;;;;;;8.55;5.93;;;;;;;12.07;100.00;95977.84;6175559;23;20001;-70
2022/10/14 04:48:46;;;;;;;15.23;5.95;;;;;;;12.03;100.00;95977.28;6176063;23;20029;-70
2022/10/14 04:51:12;;;;;;;11.13;5.57;;;;;;;12.07;100.00;95982.28;6175768;23;20004;-70
2022/10/14 04:53:37;;;;;;;6.78;5.65;;;;;;;12.11;100.00;95989.75;6175678;23;20001;-70
2022/10/14 04:56:03;;;;;;;7.40;5.55;;;;;;;12.15;100.00;95992.94;6176045;23;20420;-70
2022/10/14 04:58:28;;;;;;;8.63;5.60;;;;;;;12.14;100.00;95984.19;6176543;23;20009;-71
2022/10/14 05:00:54;;;;;;;8.65;6.00;;;;;;;12.12;100.00;95985.31;6177134;23;20005;-57
2022/10/14 05:03:19;;;;;;;7.28;6.45;;;;;;;12.10;100.00;95980.19;6177116;23;20009;-66
2022/10/14 05:05:45;;;;;;;8.27;5.93;;;;;;;12.07;100.00;95985.75;6177333;23;20001;-66
2022/10/14 05:08:10;;;;;;;13.10;5.53;;;;;;;12.07;100.00;95983.09;6177053;23;20494;-66
2022/10/14 05:10:36;;;;;;;8.75;5.68;;;;;;;12.07;100.00;95980.47;6177232;23;19997;-66
2022/10/14 05:13:02;;;;;;;12.30;5.53;;;;;;;12.07;100.00;95980.47;6177324;23;20001;-66
2022/10/14 05:15:27;;;;;;;10.05;6.18;;;;;;;12.08;100.00;95978.69;6177357;23;20429;-66
2022/10/14 05:17:53;;;;;;;7.55;6.47;;;;;;;12.07;100.00;95982.28;6177422;23;20024;-66
2022/10/14 05:20:19;;;;;;;7.05;5.50;;;;;;;12.09;100.00;95985.63;6176799;23;20009;-70
2022/10/14 05:22:44;;;;;;;9.60;6.00;;;;;;;12.11;100.00;95984.47;6177137;23;20439;-62
2022/10/14 05:25:10;;;;;;;9.20;5.53;;;;;;;12.11;100.00;95983.66;6176844;23;20348;-62
2022/10/14 05:27:35;;;;;;;7.90;5.63;;;;;;;12.12;100.00;95982.69;6177415;23;20046;-62
2022/10/14 05:30:01;;;;;;;6.95;5.57;;;;;;;12.08;100.00;95974.22;6176697;23;20481;-63
2022/10/14 05:32:27;;;;;;;10.15;6.35;;;;;;;12.08;100.00;95979.50;6176892;23;20323;-63
2022/10/14 05:34:52;;;;;;;7.35;6.30;;;;;;;12.09;100.00;95967.97;6176989;23;20001;-62
2022/10/14 05:37:18;;;;;;;11.55;6.25;;;;;;;12.10;100.00;95964.34;6177172;23;20389;-63
2022/10/14 05:39:43;;;;;;;11.68;6.13;;;;;;;12.11;100.00;95962.53;6176618;23;20030;-68
2022/10/14 05:42:08;;;;;;;10.82;6.50;;;;;;;12.10;100.00;95963.53;6176941;23;20012;-60
2022/10/14 05:44:34;;;;;;;10.52;6.28;;;;;;;12.09;100.00;95961.88;6176648;23;20001;-59
2022/10/14 05:46:59;;;;;;;8.93;6.43;;;;;;;12.11;100.00;95959.91;6176880;22;20005;-59
2022/10/14 05:49:24;;;;;;;12.50;6.20;;;;;;;12.12;100.00;95961.56;6176063;23;20090;-59
2022/10/14 05:51:50;;;;;;;12.60;6.70;;;;;;;12.10;100.00;95963.53;6175047;23;20004;-59
2022/10/14 05:54:15;;;;;;;15.52;6.32;;;;;;;12.11;100.00;95967.81;6176237;23;20001;-60
2022/10/14 05:56:41;;;;;;;9.98;6.50;;;;;;;12.12;100.00;95961.56;6176889;23;20007;-59
2022/10/14 05:59:08;;;;;;;12.95;6.38;;;;;;;12.11;100.00;95963.38;6177065;23;20001;-62
2022/10/14 06:01:35;;;;;;;7.50;5.90;;;;;;;12.13;100.00;95960.59;6176621;23;19998;-68
2022/10/14 06:04:00;;;;;;;10.18;8.98;;;;;;;12.13;100.00;95958.78;6176583;23;20001;-68
2022/10/14 06:06:26;;;;;;;13.13;10.82;;;;;;;12.16;100.00;95970.84;6176648;23;20462;-67
2022/10/14 06:08:53;;;;;;;17.75;9.23;;;;;;;12.16;100.00;95966.44;6150390;23;20008;-70
2022/10/14 06:11:19;;;;;;;11.63;6.80;;;;;;;12.18;100.00;95968.91;6176662;23;19997;-70
2022/10/14 06:13:44;;;;;;;9.43;5.95;;;;;;;12.20;100.00;95951.09;6176436;23;20046;-69
2022/10/14 06:16:10;;;;;;;11.50;7.00;;;;;;;12.21;100.00;95951.94;6176807;23;20446;-68
2022/10/14 06:18:36;;;;;;;11.88;5.53;;;;;;;12.19;100.00;95954.72;6175310;23;20402;-64
2022/10/14 06:21:02;;;;;;;13.57;6.45;;;;;;;12.19;100.00;95952.09;6176467;23;20005;-66
2022/10/14 06:23:28;;;;;;;6.90;5.63;;;;;;;12.25;100.00;95958.59;6176475;23;20024;-66
2022/10/14 06:25:53;;;;;;;14.13;6.63;;;;;;;12.26;100.00;95958.44;6176946;23;20127;-66
2022/10/14 06:28:19;;;;;;;8.05;5.55;;;;;;;12.27;100.00;95965.41;6150112;22;20032;-66
2022/10/14 06:30:51;;;;;;;11.15;5.68;;;;;;;12.30;100.00;95962.47;6176881;23;20001;-67
2022/10/14 06:33:18;;;;;;;12.80;5.95;;;;;;;12.36;100.00;95966.31;6175683;23;20001;-66
2022/10/14 06:35:43;;;;;;;8.32;6.00;;;;;;;12.41;100.00;95973.81;6177103;23;20372;-65
2022/10/14 06:38:08;;;;;;;12.85;5.97;;;;;;;12.42;100.00;95972.81;6176697;23;20001;-62
2022/10/14 06:40:35;;;;;;;8.80;5.10;;;;;;;12.41;100.00;95974.66;6176586;23;20005;-67
2022/10/14 06:43:01;;;;;;;7.90;5.22;;;;;;;12.44;100.00;95978.78;6150228;23;20028;-67
2022/10/14 06:45:26;;;;;;;13.73;5.97;;;;;;;12.47;100.00;95975.84;6177018;23;20039;-67
2022/10/14 06:47:51;;;;;;;8.55;5.70;;;;;;;12.48;100.00;95982.78;6176442;23;20058;-67
2022/10/14 06:50:17;;;;;;;6.38;5.78;;;;;;;12.55;100.00;95990.97;6176611;23;20005;-67
2022/10/14 06:52:46;;;;;;;8.95;5.22;;;;;;;12.58;100.00;95999.44;6176790;23;20004;-67
2022/10/14 06:55:12;;;;;;;7.72;5.93;;;;;;;12.60;100.00;95994.84;6175438;23;20008;-55
2022/10/14 06:57:37;;;;;;;10.15;6.60;;;;;;;12.62;100.00;96002.63;6176570;23;20469;-64
2022/10/14 07:00:04;;;;;;;9.75;5.75;;;;;;;12.63;100.00;96009.56;6176687;23;20084;-57
2022/10/14 07:02:30;;;;;;;7.38;5.20;;;;;;;12.70;100.00;96015.06;6176305;23;20008;-55
2022/10/14 07:04:55;;;;;;;7.97;5.97;;;;;;;12.78;100.00;96023.09;6176562;23;20411;-56
2022/10/14 07:07:20;;;;;;;11.60;6.50;;;;;;;12.84;100.00;96019.88;6176979;23;20001;-53
2022/10/14 07:09:46;;;;;;;12.23;5.85;;;;;;;12.79;100.00;96021.28;6176004;23;20020;-56
2022/10/14 07:12:11;;;;;;;11.75;5.90;;;;;;;12.83;100.00;96031.41;6176715;22;20054;-57
2022/10/14 07:14:37;;;;;;;13.02;5.93;;;;;;;12.87;100.00;96030.13;6176643;23;20009;-57
2022/10/14 07:17:02;;;;;;;9.80;5.95;;;;;;;12.94;100.00;96040.13;6150413;22;20001;-62
2022/10/14 07:19:28;;;;;;;14.82;6.13;;;;;;;12.97;100.00;96037.19;6176230;23;20084;-67
2022/10/14 07:21:53;;;;;;;12.00;5.82;;;;;;;12.98;100.00;96050.25;6175754;23;20788;-67
2022/10/14 07:24:18;;;;;;;11.25;6.22;;;;;;;12.97;100.00;96045.13;6176467;23;20385;-67
2022/10/14 07:26:44;;;;;;;10.18;5.32;;;;;;;12.91;100.00;96046.53;6176852;23;20081;-67
2022/10/14 07:29:09;;;;;;;11.77;5.90;;;;;;;12.88;100.00;96050.28;6175506;23;20008;-67
2022/10/14 07:31:35;;;;;;;6.80;5.57;;;;;;;12.94;100.00;96050.72;6176514;23;20012;-67
2022/10/14 07:34:00;;;;;;;8.57;5.65;;;;;;;12.96;100.00;96043.47;6174725;23;20347;-65
2022/10/14 07:36:26;;;;;;;14.48;6.45;;;;;;;13.01;100.00;96044.66;6175103;23;20013;-62
2022/10/14 07:38:52;;;;;;;11.43;5.85;;;;;;;13.10;100.00;96037.66;6176658;23;20081;-56
2022/10/14 07:41:20;;;;;;;15.25;6.18;;;;;;;13.20;100.00;96039.41;6176433;23;20009;-56
2022/10/14 07:43:48;;;;;;;7.82;5.68;;;;;;;13.27;100.00;96037.81;6176676;23;20009;-58
2022/10/14 07:46:27;;;;;;;10.30;5.35;;;;;;;13.36;100.00;96044.84;6176898;22;20316;-55
2022/10/14 07:48:52;;;;;;;9.68;6.13;;;;;;;13.43;100.00;96037.16;6175621;22;20020;-56
2022/10/14 07:51:18;;;;;;;11.20;6.65;;;;;;;13.49;100.00;96044.53;6176464;23;19997;-56
2022/10/14 07:53:43;;;;;;;9.38;6.70;;;;;;;13.60;100.00;96044.28;6176522;23;20790;-64
2022/10/14 07:56:09;;;;;;;14.70;6.20;;;;;;;13.64;100.00;96044.81;6176506;23;20020;-62
2022/10/14 07:58:34;;;;;;;11.90;6.53;;;;;;;13.68;100.00;96046.16;6176330;23;20072;-68
2022/10/14 08:00:59;;;;;;;7.15;6.30;;;;;;;13.78;100.00;96045.22;6175953;23;20005;-68
2022/10/14 08:03:26;;;;;;;8.48;6.00;;;;;;;13.79;100.00;96038.94;6176656;22;19993;-68
2022/10/14 08:05:58;;;;;;;8.23;6.32;;;;;;;13.82;100.00;96033.38;6176344;23;20351;-68
2022/10/14 08:08:23;;;;;;;9.68;5.50;;;;;;;13.86;100.00;96045.31;6176379;23;20008;-68
2022/10/14 08:10:49;;;;;;;10.50;5.57;;;;;;;14.11;100.00;96037.53;6175868;23;19997;-69
2022/10/14 08:13:14;;;;;;;10.07;6.35;;;;;;;14.25;100.00;96044.91;6176196;23;20005;-59
2022/10/14 08:15:41;;;;;;;10.90;5.38;;;;;;;14.15;100.00;96039.72;6176300;22;20491;-59
2022/10/14 08:18:09;;;;;;;10.10;4.78;;;;;;;14.17;100.00;96043.06;6175303;23;20005;-69
2022/10/14 08:20:35;;;;;;;12.75;4.82;;;;;;;14.14;100.00;96045.16;6176202;22;20005;-69
2022/10/14 08:23:00;;;;;;;9.35;5.10;;;;;;;14.31;100.00;96046.94;6175898;23;20470;-69
2022/10/14 08:25:26;;;;;;;10.70;5.10;;;;;;;14.27;100.00;96034.16;6176506;23;20031;-70
2022/10/14 08:27:53;;;;;;;12.43;4.80;;;;;;;14.40;100.00;96033.72;6149731;23;20004;-69
2022/10/14 08:30:19;;;;;;;7.45;4.57;;;;;;;14.45;100.00;96040.22;6175819;23;19997;-69
2022/10/14 08:32:44;;;;;;;6.07;4.32;;;;;;;14.54;100.00;96041.09;6150625;22;20427;-64
2022/10/14 08:35:10;;;;;;;6.65;4.10;;;;;;;14.50;100.00;96039.75;6177635;23;20090;-69
2022/10/14 08:37:35;;;;;;;11.52;4.90;;;;;;;14.54;100.00;96040.25;6177364;23;20108;-67
2022/10/14 08:40:01;;;;;;;8.77;5.30;;;;;;;14.53;100.00;96052.69;6176675;23;20013;-66
2022/10/14 08:42:32;;;;;;;9.23;5.13;;;;;;;14.55;100.00;96053.34;6175589;23;20009;-67
2022/10/14 08:45:14;;;;;;;7.88;5.35;;;;;;;14.64;100.00;96050.72;6175729;23;20012;-67
2022/10/14 08:47:44;;;;;;;6.95;5.05;;;;;;;14.69;100.00;96059.88;6177351;23;20004;-67
2022/10/14 08:50:25;;;;;;;7.20;5.07;;;;;;;14.80;100.00;96061.44;6176088;23;20339;-66
2022/10/14 08:53:11;;;;;;;10.88;5.13;;;;;;;14.85;100.00;96064.44;6176724;22;20001;-65
2022/10/14 08:55:59;;;;;;;11.80;5.32;;;;;;;14.89;100.00;96063.13;6177498;23;20013;-65
2022/10/14 08:58:33;;;;;;;10.30;5.97;;;;;;;15.01;100.00;96063.66;6177370;23;20112;-65
2022/10/14 09:01:11;;;;;;;8.48;5.50;;;;;;;15.07;100.00;96078.09;6176606;23;20012;-65
2022/10/14 09:03:36;;;;;;;15.07;6.45;;;;;;;15.15;100.00;96069.34;6176264;23;20004;-65
2022/10/14 09:06:04;;;;;;;10.55;5.80;;;;;;;15.20;100.00;96082.13;6177411;23;19997;-65
2022/10/14 09:08:37;;;;;;;9.32;7.85;;;;;;;15.12;100.00;96077.63;6177196;23;20080;-65
2022/10/14 09:11:05;;;;;;;13.50;8.95;;;;;;;15.12;100.00;96083.75;6177096;23;20007;-62
2022/10/14 09:13:40;;;;;;;16.42;8.38;;;;;;;15.22;100.00;96083.63;6176830;23;20052;-67
2022/10/14 09:16:16;;;;;;;13.50;7.85;;;;;;;14.96;100.00;96081.88;6176775;23;20484;-64
2022/10/14 09:18:51;;;;;;;12.60;9.45;;;;;;;15.01;100.00;96084.88;6176735;23;20036;-63
2022/10/14 09:21:25;;;;;;;12.55;7.80;;;;;;;14.74;100.00;96084.09;6176556;23;20076;-63
2022/10/14 09:24:00;;;;;;;11.82;8.23;;;;;;;14.61;100.00;96089.81;6177544;22;20009;-64
2022/10/14 09:26:39;;;;;;;14.55;8.77;;;;;;;14.74;100.00;96089.41;6176548;23;20013;-64
2022/10/14 09:29:14;;;;;;;12.30;9.40;;;;;;;14.60;100.00;96093.44;6177054;23;20019;-64
2022/10/14 09:31:40;;;;;;;12.80;9.75;;;;;;;14.67;100.00;96087.50;6177095;23;20004;-67
2022/10/14 09:34:14;;;;;;;15.40;9.00;;;;;;;14.46;100.00;96088.72;6177084;23;20087;-68
2022/10/14 09:36:40;;;;;;;16.17;8.32;;;;;;;14.42;100.00;96095.31;6177268;23;19997;-68
2022/10/14 09:39:05;;;;;;;10.82;8.23;;;;;;;14.44;100.00;96094.19;6176793;23;20008;-68
2022/10/14 09:41:31;;;;;;;11.68;8.40;;;;;;;14.48;100.00;96089.41;6176546;23;20706;-69
2022/10/14 09:44:24;;;;;;;10.98;8.10;;;;;;;14.46;100.00;96092.22;6176071;23;20005;-69
2022/10/14 09:47:02;;;;;;;11.13;8.43;;;;;;;14.45;100.00;96095.00;6177388;23;19993;-68
2022/10/14 09:49:41;;;;;;;11.02;8.20;;;;;;;14.44;100.00;96096.00;6177009;23;20350;-69
2022/10/14 09:52:18;;;;;;;10.75;7.78;;;;;;;14.44;100.00;96088.06;6149787;22;20382;-59
2022/10/14 09:54:44;;;;;;;13.20;8.80;;;;;;;14.48;100.00;96084.13;6177300;23;20003;-64
2022/10/14 09:57:17;;;;;;;13.60;8.95;;;;;;;14.61;100.00;96087.16;6177225;23;20083;-64
2022/10/14 09:59:55;;;;;;;9.23;7.03;;;;;;;14.75;100.00;96090.25;6175771;23;20810;-64
2022/10/14 10:02:23;;;;;;;11.25;7.57;;;;;;;14.83;100.00;96077.03;6175997;23;20001;-64
2022/10/14 10:04:49;;;;;;;10.02;6.55;;;;;;;14.97;100.00;96078.25;6150606;23;20328;-64
2022/10/14 10:07:30;;;;;;;9.77;5.85;;;;;;;15.13;100.00;96066.84;6177335;23;19997;-64
2022/10/14 10:09:58;;;;;;;10.60;5.40;;;;;;;15.30;100.00;96057.13;6177595;22;20070;-57
2022/10/14 10:12:29;;;;;;;6.30;4.38;;;;;;;15.51;100.00;96062.97;6150679;22;20498;-64
2022/10/14 10:14:57;;;;;;;8.23;4.07;;;;;;;15.73;100.00;96050.88;6177476;23;20431;-64
2022/10/14 10:17:26;;;;;;;4.90;4.10;;;;;;;15.98;100.00;96048.25;6176844;23;20346;-64
2022/10/14 10:20:07;;;;;;;5.10;4.57;;;;;;;16.15;100.00;96043.75;6175279;23;20009;-63
2022/10/14 10:22:37;;;;;;;5.45;4.05;;;;;;;16.26;98.33;96038.09;6149873;23;20001;-64
2022/10/14 10:25:03;;;;;;;11.73;4.18;;;;;;;16.38;95.74;96029.75;6176593;23;20008;-64
2022/10/14 10:27:34;;;;;;;5.60;4.15;;;;;;;16.41;93.21;96032.06;6177138;23;20412;-68
2022/10/14 10:30:13;;;;;;;6.22;4.00;;;;;;;16.46;93.75;96038.53;6177095;23;20638;-66
2022/10/14 10:32:42;;;;;;;8.30;4.00;;;;;;;16.46;95.46;96029.72;6176265;23;20008;-56
2022/10/14 10:35:46;;;;;;;4.72;4.07;;;;;;;16.56;93.64;96025.06;6176359;22;19997;-57
2022/10/14 10:38:22;;;;;;;6.65;4.07;;;;;;;16.64;92.41;96018.88;6175235;23;20001;-57
2022/10/14 10:40:56;;;;;;;;;;;;;;;16.55;88.90;96018.09;6177119;23;20058;-57
2022/10/14 10:43:30;;;;;;;9.95;4.30;;;;;;;16.52;90.82;96015.78;6176551;23;20338;-56
2022/10/14 10:46:32;;;;;;;5.93;4.20;;;;;;;16.53;93.65;96020.09;6177325;23;19997;-57
2022/10/14 10:49:25;;;;;;;9.10;4.30;;;;;;;16.46;94.50;96008.47;6177229;23;19997;-59
2022/10/14 10:52:14;;;;;;;8.32;4.13;;;;;;;16.46;93.77;96008.47;6176259;23;20077;-59
2022/10/14 10:55:06;;;;;;;8.48;3.85;;;;;;;16.39;93.32;96007.50;6176572;23;20001;-59
2022/10/14 10:57:51;;;;;;;6.47;4.30;;;;;;;16.50;92.96;96008.97;6176766;23;20520;-59
2022/10/14 11:00:22;;;;;;;9.40;4.32;;;;;;;16.69;92.55;95997.06;6176476;23;20016;-59
2022/10/14 11:03:36;;;;;;;14.70;4.20;;;;;;;16.79;89.30;96000.38;6176238;23;20076;-59
2022/10/14 11:12:01;;;;;;;5.80;3.55;;;;;;;16.74;90.20;95994.75;6176838;23;20062;-67
2022/10/14 11:12:32;;;;;;;5.38;4.10;;;;;;;16.85;90.23;95993.53;6174944;23;20063;-57
2022/10/14 11:15:09;;;;;;;;;;;;;;;16.88;88.31;95986.03;6177622;23;20359;-58
2022/10/14 11:17:53;;;;;;;6.03;3.90;;;;;;;16.97;91.03;95986.00;6176650;23;20242;-56
2022/10/14 11:20:35;;;;;;;6.05;3.88;;;;;;;16.90;91.44;95970.72;6175749;23;20017;-58
2022/10/14 11:23:36;;;;;;;7.82;4.22;;;;;;;16.98;92.59;95964.56;6176198;23;20316;-57
2022/10/14 11:26:05;;;;;;;8.85;3.70;;;;;;;17.02;90.18;95968.56;6176542;23;20021;-65
2022/10/14 11:28:44;;;;;;;6.80;3.47;;;;;;;16.98;88.13;95959.25;6176204;23;20012;-68
2022/10/14 11:31:39;;;;;;;3.47;3.15;;;;;;;16.93;91.08;95950.13;6174911;23;20005;-68
2022/10/14 11:34:22;;;;;;;5.03;3.40;;;;;;;16.99;88.89;95939.63;6175567;23;20005;-69
2022/10/14 11:36:48;;;;;;;5.20;3.60;;;;;;;17.00;89.80;95930.63;6176091;23;20013;-68
2022/10/14 11:39:38;;;;;;;5.63;3.35;;;;;;;17.01;88.94;95929.63;6175726;23;20461;-68